Time;durP1;ratioP1;P1;durP2;ratioP2;P2;SDS_P1;SDS_P2;PMS_P1;PMS_P2;Temp;Humidity;BMP_temperature;BMP_pressure;BME280_temperature;BME280_humidity;BME280_pressure;Samples;Min_cycle;Max_cycle;Signal;HPM_P1;HPM_P2
2022/11/28 00:01:27;;;;;;;;;7.50;5.50;;;;;20.42;40.17;100656.47;5047225;28;45328;-57
2022/11/28 00:03:53;;;;;;;;;5.00;5.00;;;;;20.41;39.76;100649.50;5059433;28;45338;-57
2022/11/28 00:06:18;;;;;;;;;7.75;6.00;;;;;20.42;39.62;100638.03;5061033;28;45646;-57
2022/11/28 00:08:44;;;;;;;;;5.75;5.00;;;;;20.41;40.01;100625.81;5064228;28;45438;-57
2022/11/28 00:11:11;;;;;;;;;6.00;5.50;;;;;20.38;39.63;100622.41;5059000;28;45350;-57
2022/11/28 00:13:37;;;;;;;;;4.75;4.75;;;;;20.38;39.96;100622.41;5058742;28;45325;-57
2022/11/28 00:16:08;;;;;;;;;6.00;6.00;;;;;20.37;39.60;100607.56;5057630;28;45875;-57
2022/11/28 00:18:34;;;;;;;;;5.00;4.75;;;;;20.37;40.06;100607.56;5057795;28;45880;-57
2022/11/28 00:21:06;;;;;;;;;6.50;5.00;;;;;20.38;39.79;100606.63;5057999;28;45327;-57
2022/11/28 00:23:32;;;;;;;;;2.00;2.00;;;;;20.37;40.27;100610.19;5048520;28;45332;-57
2022/11/28 00:26:00;;;;;;;;;5.75;4.00;;;;;20.38;39.96;100611.03;5065903;28;45489;-57
2022/11/28 00:28:25;;;;;;;;;5.25;5.25;;;;;20.34;39.58;100599.81;5058942;28;45774;-57
2022/11/28 00:30:50;;;;;;;;;4.00;3.00;;;;;20.35;39.61;100606.78;5058597;28;45260;-57
2022/11/28 00:33:16;;;;;;;;;5.75;5.75;;;;;20.35;39.46;100601.53;5060280;28;45393;-57
2022/11/28 00:35:41;;;;;;;;;4.75;4.75;;;;;20.35;39.67;100595.44;5064470;28;46482;-57
2022/11/28 00:38:06;;;;;;;;;5.00;5.00;;;;;20.34;40.19;100599.81;5062089;28;55818;-57
2022/11/28 00:40:31;;;;;;;;;5.00;5.00;;;;;20.34;40.28;100594.56;5064429;28;53398;-57
2022/11/28 00:42:57;;;;;;;;;7.00;5.50;;;;;20.34;40.24;100597.19;5041800;28;45490;-57
2022/11/28 00:45:22;;;;;;;;;5.00;4.00;;;;;20.34;39.84;100599.00;5056810;28;60008;-57
2022/11/28 00:47:50;;;;;;;;;5.25;4.00;;;;;20.32;40.04;100591.19;5055602;28;45471;-57
2022/11/28 00:50:16;;;;;;;;;4.00;4.00;;;;;20.32;39.72;100585.94;5056886;28;49033;-56
2022/11/28 00:52:41;;;;;;;;;8.50;5.00;;;;;20.31;40.20;100589.50;5057534;28;45335;-57
2022/11/28 00:55:07;;;;;;;;;5.25;3.75;;;;;20.31;40.14;100588.63;5057216;28;45482;-57
2022/11/28 00:57:33;;;;;;;;;5.75;4.75;;;;;20.31;40.34;100588.63;5057500;28;45245;-57
2022/11/28 00:59:58;;;;;;;;;6.00;5.00;;;;;20.31;40.20;100589.50;5058398;28;45431;-57
2022/11/28 01:02:23;;;;;;;;;4.00;4.00;;;;;20.28;39.87;100589.66;5065127;28;45592;-57
2022/11/28 01:04:49;;;;;;;;;3.75;3.75;;;;;20.30;40.23;100593.06;5059952;28;46294;-57
2022/11/28 01:07:14;;;;;;;;;5.00;5.00;;;;;20.29;40.21;100587.88;5056735;28;45389;-57
2022/11/28 01:09:40;;;;;;;;;7.75;5.00;;;;;20.30;39.84;100584.31;5057153;28;45469;-57
2022/11/28 01:12:05;;;;;;;;;4.75;4.75;;;;;20.27;40.27;100587.97;5056867;28;47512;-57
2022/11/28 01:14:30;;;;;;;;;4.00;4.00;;;;;20.26;39.98;100583.63;5058001;28;46499;-57
2022/11/28 01:16:56;;;;;;;;;4.25;4.00;;;;;20.27;39.92;100589.78;5064767;28;45315;-57
2022/11/28 01:19:21;;;;;;;;;6.00;4.00;;;;;20.26;40.01;100586.28;5067484;28;45287;-57
2022/11/28 01:21:47;;;;;;;;;5.00;5.00;;;;;20.26;40.31;100586.28;5068253;28;45293;-57
2022/11/28 01:24:13;;;;;;;;;4.50;3.50;;;;;20.25;40.43;100592.47;5060687;28;45690;-57
2022/11/28 01:26:39;;;;;;;;;7.00;4.50;;;;;20.25;40.48;100589.84;5060813;28;45280;-57
2022/11/28 01:29:05;;;;;;;;;4.00;4.00;;;;;20.23;40.11;100587.31;5066864;28;45259;-57
2022/11/28 01:31:31;;;;;;;;;7.50;6.00;;;;;20.23;40.16;100589.06;5065490;28;45567;-57
2022/11/28 01:33:57;;;;;;;;;4.00;4.00;;;;;20.24;40.30;100594.28;5060775;28;45410;-57
2022/11/28 01:36:23;;;;;;;;;6.00;5.00;;;;;20.23;40.25;100596.97;5060436;28;45335;-57
2022/11/28 01:38:49;;;;;;;;;3.75;3.75;;;;;20.23;40.61;100607.50;5068681;28;45391;-57
2022/11/28 01:41:18;;;;;;;;;4.25;4.00;;;;;20.22;40.03;100598.75;5075992;28;45379;-57
2022/11/28 01:44:16;;;;;;;;;3.00;3.00;;;;;20.21;40.35;100615.50;5063566;28;46569;-57
2022/11/28 01:46:42;;;;;;;;;4.00;4.00;;;;;20.20;40.62;100615.59;5015628;28;45457;-57
2022/11/28 01:49:15;;;;;;;;;3.00;3.00;;;;;20.20;40.18;100618.22;5060405;28;45186;-57
2022/11/28 01:51:46;;;;;;;;;3.25;3.25;;;;;20.21;40.26;100620.75;5063172;28;45238;-57
2022/11/28 01:54:15;;;;;;;;;5.00;4.00;;;;;20.20;40.71;100623.47;5066565;28;45417;-57
2022/11/28 01:56:46;;;;;;;;;4.00;4.00;;;;;20.17;40.10;100623.66;5066287;28;45237;-57
2022/11/28 01:59:14;;;;;;;;;3.75;3.75;;;;;20.19;40.32;100629.69;5061171;28;45377;-57
2022/11/28 02:01:42;;;;;;;;;3.75;3.75;;;;;20.17;40.26;100621.88;5060381;28;45164;-57
2022/11/28 02:04:08;;;;;;;;;3.75;3.00;;;;;20.18;40.69;100625.34;5059566;28;46553;-57
2022/11/28 02:06:34;;;;;;;;;4.00;4.00;;;;;20.18;40.69;100630.59;5059961;28;45478;-57
2022/11/28 02:09:00;;;;;;;;;4.25;4.25;;;;;20.17;40.30;100628.91;5060325;28;45445;-57
2022/11/28 02:12:02;;;;;;;;;3.25;3.25;;;;;20.16;40.69;100628.06;5059676;28;45566;-57
2022/11/28 02:14:43;;;;;;;;;3.75;3.75;;;;;20.16;40.56;100624.59;5059379;28;46297;-57
2022/11/28 02:17:29;;;;;;;;;1.50;1.00;;;;;20.17;40.74;100632.41;5059545;28;45331;-57
2022/11/28 02:20:31;;;;;;;;;4.50;3.25;;;;;20.16;40.71;100628.06;5059567;28;45307;-57
2022/11/28 02:23:08;;;;;;;;;3.25;3.25;;;;;20.15;40.83;100620.25;5062887;28;45307;-57
2022/11/28 02:26:12;;;;;;;;;4.25;4.00;;;;;20.15;40.62;100615.00;5065961;28;45665;-57
2022/11/28 02:28:49;;;;;;;;;4.00;4.00;;;;;20.14;40.71;100615.91;5045779;28;45441;-57
2022/11/28 02:31:33;;;;;;;;;4.00;3.50;;;;;20.13;40.62;100606.31;5064142;28;45343;-57
2022/11/28 02:34:08;;;;;;;;;3.50;3.50;;;;;20.13;40.62;100606.31;5070163;28;45338;-57
2022/11/28 02:36:45;;;;;;;;;3.00;2.50;;;;;20.12;40.35;100610.75;5064063;28;45404;-57
2022/11/28 02:39:29;;;;;;;;;4.00;4.00;;;;;20.12;40.45;100607.28;5065982;28;45266;-57
2022/11/28 02:42:11;;;;;;;;;2.25;2.25;;;;;20.10;40.88;100610.00;5064577;28;45337;-57
2022/11/28 02:44:59;;;;;;;;;3.75;3.75;;;;;20.10;40.53;100612.63;5074553;28;45378;-57
2022/11/28 02:47:31;;;;;;;;;4.00;3.00;;;;;20.11;40.97;100602.97;5063999;28;46575;-57
2022/11/28 02:50:06;;;;;;;;;3.00;3.00;;;;;20.11;40.43;100600.34;5066904;28;45429;-57
2022/11/28 02:52:40;;;;;;;;;5.00;2.50;;;;;20.11;40.90;100592.44;5067587;28;45393;-57
2022/11/28 02:55:07;;;;;;;;;4.00;4.00;;;;;20.10;40.95;100582.84;5064349;28;45511;-57
2022/11/28 02:57:53;;;;;;;;;3.00;3.00;;;;;20.09;40.50;100571.47;5060526;28;48136;-57
2022/11/28 03:00:32;;;;;;;;;3.00;3.00;;;;;20.09;40.54;100574.09;5059963;28;45256;-57
2022/11/28 03:03:23;;;;;;;;;4.00;2.25;;;;;20.08;40.60;100572.41;5063719;28;45237;-57
2022/11/28 03:06:07;;;;;;;;;3.75;2.75;;;;;20.07;40.82;100571.56;5066805;28;45320;-57
2022/11/28 03:08:35;;;;;;;;;4.00;3.00;;;;;20.06;40.75;100563.75;5082179;28;46696;-57
2022/11/28 03:11:16;;;;;;;;;6.25;3.00;;;;;20.05;40.95;100560.28;5085506;28;45014;-57
2022/11/28 03:13:50;;;;;;;;;3.75;3.00;;;;;20.04;40.80;100565.63;5085773;28;44679;-57
2022/11/28 03:16:33;;;;;;;;;3.00;3.00;;;;;20.02;41.03;100560.44;5062806;28;45267;-57
2022/11/28 03:19:16;;;;;;;;;4.25;3.75;;;;;20.02;40.76;100564.88;5067510;28;46083;-57
2022/11/28 03:21:49;;;;;;;;;3.75;3.50;;;;;20.02;41.06;100567.50;5061925;28;45399;-57
2022/11/28 03:24:32;;;;;;;;;4.00;3.00;;;;;20.01;40.68;100576.31;5060393;28;45360;-57
2022/11/28 03:27:49;;;;;;;;;5.00;3.75;;;;;20.00;40.72;100577.25;5060551;28;45380;-57
2022/11/28 03:30:35;;;;;;;;;2.00;2.00;;;;;20.00;41.16;100586.00;5035079;28;46456;-57
2022/11/28 03:33:02;;;;;;;;;2.00;2.00;;;;;19.99;41.17;100581.69;5018065;28;45402;-57
2022/11/28 03:35:33;;;;;;;;;3.25;3.25;;;;;19.99;41.12;100586.94;5058915;28;45343;-57
2022/11/28 03:38:15;;;;;;;;;4.00;4.00;;;;;19.99;40.96;100589.56;5058566;28;45266;-57
2022/11/28 03:40:48;;;;;;;;;3.75;3.75;;;;;19.97;41.04;100596.69;5058024;28;47379;-57
2022/11/28 03:43:19;;;;;;;;;5.00;3.50;;;;;19.99;40.96;100591.34;5059281;28;45541;-57
2022/11/28 03:45:50;;;;;;;;;2.00;2.00;;;;;19.99;40.96;100593.97;5069323;28;45430;-57
2022/11/28 03:48:22;;;;;;;;;4.00;2.50;;;;;19.98;40.79;100589.63;5065795;28;45529;-57
2022/11/28 03:50:56;;;;;;;;;3.00;3.00;;;;;19.98;41.37;100587.88;5058255;28;46503;-57
2022/11/28 03:53:33;;;;;;;;;5.50;3.00;;;;;19.98;40.84;100576.50;5057862;28;45285;-57
2022/11/28 03:56:16;;;;;;;;;3.75;3.75;;;;;19.99;41.01;100572.94;5058187;28;45408;-57
2022/11/28 03:58:58;;;;;;;;;5.00;3.00;;;;;19.98;40.89;100572.09;5058436;28;45326;-57
2022/11/28 04:01:46;;;;;;;;;3.25;3.00;;;;;19.97;40.95;100573.03;5058308;28;46358;-57
2022/11/28 04:04:30;;;;;;;;;4.00;3.00;;;;;19.96;41.11;100566.06;5059462;28;45656;-57
2022/11/28 04:07:20;;;;;;;;;4.25;3.00;;;;;19.93;40.89;100564.47;5059770;28;45776;-57
2022/11/28 04:10:06;;;;;;;;;4.00;3.00;;;;;19.95;41.02;100560.91;5058357;28;45422;-57
2022/11/28 04:12:38;;;;;;;;;3.75;3.00;;;;;19.96;40.80;100567.84;5059335;28;46176;-57
2022/11/28 04:15:10;;;;;;;;;4.00;3.25;;;;;19.93;41.22;100575.00;5061236;28;45436;-57
2022/11/28 04:17:46;;;;;;;;;5.00;4.00;;;;;19.95;41.54;100588.03;5061407;28;45270;-57
2022/11/28 04:20:19;;;;;;;;;3.00;3.00;;;;;19.93;41.48;100579.38;5065835;28;45459;-57
2022/11/28 04:22:53;;;;;;;;;3.25;3.25;;;;;19.93;41.19;100574.13;5060682;28;46428;-57
2022/11/28 04:25:22;;;;;;;;;3.75;3.75;;;;;19.93;41.13;100566.22;5058081;28;45291;-57
2022/11/28 04:28:00;;;;;;;;;4.00;3.00;;;;;19.92;41.13;100569.78;5057659;28;45419;-57
2022/11/28 04:30:26;;;;;;;;;4.00;4.00;;;;;19.92;41.21;100568.03;5058011;28;45476;-57
2022/11/28 04:32:59;;;;;;;;;3.75;3.75;;;;;19.91;41.55;100571.59;5057645;28;46313;-57
2022/11/28 04:35:36;;;;;;;;;3.00;3.00;;;;;19.92;41.36;100581.19;5057648;28;45347;-57
2022/11/28 04:38:05;;;;;;;;;4.00;4.00;;;;;19.92;41.42;100577.69;5058041;28;45552;-57
2022/11/28 04:40:33;;;;;;;;;3.00;3.00;;;;;19.91;41.00;100573.34;5062929;28;45396;-57
2022/11/28 04:43:11;;;;;;;;;4.25;4.00;;;;;19.91;41.52;100582.13;5059821;28;45489;-57
2022/11/28 04:45:45;;;;;;;;;4.00;4.00;;;;;19.90;41.15;100585.69;5057999;28;45410;-57
2022/11/28 04:48:11;;;;;;;;;3.75;3.75;;;;;19.88;41.52;100577.03;5058100;28;45322;-57
2022/11/28 04:51:11;;;;;;;;;3.00;3.00;;;;;19.89;41.21;100589.25;5057831;28;45379;-57
2022/11/28 04:53:51;;;;;;;;;5.00;4.00;;;;;19.87;41.52;100600.78;5034805;28;46376;-57
2022/11/28 04:56:27;;;;;;;;;4.00;4.00;;;;;19.89;41.62;100598.94;5058534;28;45378;-57
2022/11/28 04:58:52;;;;;;;;;4.00;4.00;;;;;19.88;41.23;100591.97;5064956;28;45408;-57
2022/11/28 05:01:24;;;;;;;;;3.00;3.00;;;;;19.88;41.12;100587.53;5068391;28;45588;-57
2022/11/28 05:03:49;;;;;;;;;3.00;3.00;;;;;19.87;41.75;100569.22;5070035;28;45442;-57
2022/11/28 05:06:27;;;;;;;;;2.75;2.50;;;;;19.87;41.12;100562.16;5073881;28;45347;-57
2022/11/28 05:08:52;;;;;;;;;3.25;3.25;;;;;19.86;41.60;100563.09;5075348;28;45368;-58
2022/11/28 05:11:18;;;;;;;;;4.00;4.00;;;;;19.87;41.51;100574.50;5074127;28;45362;-57
2022/11/28 05:13:43;;;;;;;;;4.75;3.25;;;;;19.87;41.27;100577.13;5074449;28;46339;-57
2022/11/28 05:16:11;;;;;;;;;2.25;2.25;;;;;19.84;41.17;100582.50;5075184;28;45252;-57
2022/11/28 05:18:37;;;;;;;;;3.25;3.25;;;;;19.86;41.34;100578.88;5078053;28;44664;-57
2022/11/28 05:21:05;;;;;;;;;3.25;3.25;;;;;19.85;41.08;100571.06;5074615;28;45557;-57
2022/11/28 05:23:30;;;;;;;;;3.00;3.00;;;;;19.86;41.53;100588.56;5073083;28;46653;-57
2022/11/28 05:25:56;;;;;;;;;5.00;4.00;;;;;19.86;41.41;100583.31;5073725;28;58028;-57
2022/11/28 05:28:21;;;;;;;;;4.67;4.67;;;;;19.86;41.17;100572.78;5070221;28;59835;-59
2022/11/28 05:30:58;;;;;;;;;3.50;3.50;;;;;19.85;41.66;100563.16;5064814;28;45251;-57
2022/11/28 05:33:24;;;;;;;;;3.75;3.00;;;;;19.84;41.53;100564.97;5067886;28;45460;-57
2022/11/28 05:35:49;;;;;;;;;4.00;4.00;;;;;19.85;41.55;100565.78;5079452;28;44646;-57
2022/11/28 05:38:14;;;;;;;;;4.00;4.00;;;;;19.85;41.75;100568.44;5082811;28;51076;-57
2022/11/28 05:40:43;;;;;;;;;3.50;3.25;;;;;19.84;41.46;100569.34;5061789;28;45339;-57
2022/11/28 05:43:09;;;;;;;;;4.75;4.75;;;;;19.85;41.37;100565.78;5060757;28;47327;-57
2022/11/28 05:45:39;;;;;;;;;2.25;2.25;;;;;19.85;41.46;100571.06;5061846;28;45307;-57
2022/11/28 05:48:05;;;;;;;;;4.00;4.00;;;;;19.85;41.84;100573.69;5058163;28;45517;-57
2022/11/28 05:50:30;;;;;;;;;3.00;3.00;;;;;19.84;41.40;100570.22;5057835;28;45231;-57
2022/11/28 05:52:55;;;;;;;;;2.75;2.75;;;;;19.84;41.79;100569.34;5056644;28;48613;-56
2022/11/28 05:55:21;;;;;;;;;4.00;4.00;;;;;19.82;41.45;100565.97;5059797;28;45428;-57
2022/11/28 05:57:46;;;;;;;;;5.00;4.50;;;;;19.82;41.38;100569.47;5065556;28;45239;-57
2022/11/28 06:00:13;;;;;;;;;3.00;3.00;;;;;19.83;41.33;100575.56;5067864;28;45383;-57
2022/11/28 06:02:38;;;;;;;;;6.25;3.25;;;;;19.82;41.63;100585.22;5071387;28;45335;-57
2022/11/28 06:05:04;;;;;;;;;3.25;2.50;;;;;19.81;41.56;100572.16;5069284;28;45406;-57
2022/11/28 06:07:30;;;;;;;;;3.50;3.25;;;;;19.82;41.80;100576.47;5075192;28;45395;-57
2022/11/28 06:09:55;;;;;;;;;4.50;3.00;;;;;19.82;42.06;100581.75;5069134;28;45310;-57
2022/11/28 06:12:20;;;;;;;;;3.00;3.00;;;;;19.80;41.95;100579.22;5064803;28;46369;-57
2022/11/28 06:14:45;;;;;;;;;3.50;3.50;;;;;19.80;41.38;100588.88;5062843;28;45374;-57
2022/11/28 06:17:11;;;;;;;;;5.00;4.00;;;;;19.80;41.83;100595.00;5064674;28;45252;-57
2022/11/28 06:19:36;;;;;;;;;4.25;4.00;;;;;19.81;41.50;100590.56;5062554;28;45576;-57
2022/11/28 06:22:02;;;;;;;;;3.00;3.00;;;;;19.81;41.82;100598.44;5062025;28;46292;-57
2022/11/28 06:24:27;;;;;;;;;5.00;4.00;;;;;19.78;41.65;100599.47;5071584;28;44728;-57
2022/11/28 06:26:53;;;;;;;;;5.00;5.00;;;;;19.81;41.53;100607.22;5073616;28;45531;-57
2022/11/28 06:29:19;;;;;;;;;7.00;4.50;;;;;19.79;42.10;100603.81;5072218;28;44849;-57
2022/11/28 06:31:44;;;;;;;;;3.25;3.25;;;;;19.80;41.69;100616.03;5071935;28;46438;-57
2022/11/28 06:34:11;;;;;;;;;4.00;3.50;;;;;19.78;41.95;100602.97;5062736;28;45260;-57
2022/11/28 06:36:37;;;;;;;;;6.25;3.25;;;;;19.80;42.03;100607.28;5060970;28;45359;-57
2022/11/28 06:39:03;;;;;;;;;3.75;3.75;;;;;19.80;41.42;100599.38;5060228;28;45637;-57
2022/11/28 06:41:28;;;;;;;;;3.75;3.00;;;;;19.78;41.89;100602.97;5059829;28;45612;-57
2022/11/28 06:43:55;;;;;;;;;5.00;4.00;;;;;19.80;41.63;100610.75;5060903;28;48614;-57
2022/11/28 06:46:21;;;;;;;;;3.25;3.25;;;;;19.78;41.50;100610.88;5065381;28;45382;-57
2022/11/28 06:48:49;;;;;;;;;5.00;4.00;;;;;19.78;41.64;100620.53;5064298;28;45350;-57
2022/11/28 06:51:15;;;;;;;;;4.75;3.50;;;;;19.77;42.00;100614.41;5061286;28;46437;-57
2022/11/28 06:53:41;;;;;;;;;3.00;3.00;;;;;19.76;41.75;100620.63;5061327;28;45307;-57
2022/11/28 06:56:09;;;;;;;;;4.75;3.25;;;;;19.78;41.66;100628.41;5070599;28;45249;-57
2022/11/28 06:58:34;;;;;;;;;4.75;4.00;;;;;19.76;41.65;100625.88;5071813;28;45473;-57
2022/11/28 07:01:12;;;;;;;;;3.50;3.00;;;;;19.77;42.13;100624.06;5060558;28;46244;-58
2022/11/28 07:03:38;;;;;;;;;4.00;4.00;;;;;19.76;41.64;100620.63;5059615;28;45867;-57
2022/11/28 07:06:04;;;;;;;;;3.00;3.00;;;;;19.74;41.54;100617.22;5067059;28;45298;-57
2022/11/28 07:08:31;;;;;;;;;3.00;3.00;;;;;19.75;42.04;100624.19;5062779;28;45616;-57
2022/11/28 07:10:57;;;;;;;;;2.50;2.50;;;;;19.75;42.04;100626.81;5064078;28;46487;-57
2022/11/28 07:13:23;;;;;;;;;4.00;4.00;;;;;19.76;41.52;100627.63;5065169;28;45375;-57
2022/11/28 07:15:51;;;;;;;;;4.50;3.00;;;;;19.74;41.80;100618.97;5045435;28;45502;-57
2022/11/28 07:18:19;;;;;;;;;5.00;4.50;;;;;19.73;41.89;100631.28;5072556;28;45230;-57
2022/11/28 07:20:45;;;;;;;;;3.75;3.75;;;;;19.74;41.54;100630.38;5068894;28;45713;-57
2022/11/28 07:23:10;;;;;;;;;2.75;2.00;;;;;19.73;41.99;100625.19;5066162;28;45198;-57
2022/11/28 07:25:35;;;;;;;;;3.33;3.33;;;;;19.72;41.42;100629.59;5064492;28;58136;-57
2022/11/28 07:28:01;;;;;;;;;4.00;3.00;;;;;19.73;41.48;100636.56;5060600;28;45229;-57
2022/11/28 07:30:26;;;;;;;;;3.75;3.00;;;;;19.74;41.43;100626.88;5062267;28;46675;-57
2022/11/28 07:32:51;;;;;;;;;3.25;3.25;;;;;19.74;41.73;100621.59;5066716;28;45248;-57
2022/11/28 07:35:17;;;;;;;;;5.00;3.00;;;;;19.73;42.12;100631.28;5060181;28;45163;-57
2022/11/28 07:37:42;;;;;;;;;5.75;3.00;;;;;19.74;41.44;100634.75;5068484;28;45193;-57
2022/11/28 07:40:08;;;;;;;;;4.00;4.00;;;;;19.73;41.73;100647.06;5071460;28;53316;-57
2022/11/28 07:42:34;;;;;;;;;4.75;3.25;;;;;19.74;41.52;100643.50;5078393;28;45138;-57
2022/11/28 07:44:59;;;;;;;;;2.75;2.75;;;;;19.73;41.46;100640.97;5075977;28;44830;-57
2022/11/28 07:47:25;;;;;;;;;3.25;2.00;;;;;19.72;41.60;100639.28;5080363;28;45350;-57
2022/11/28 07:49:50;;;;;;;;;5.00;3.00;;;;;19.73;41.61;100649.69;5071940;28;49998;-57
2022/11/28 07:52:15;;;;;;;;;4.25;3.00;;;;;19.71;41.79;100635.78;5061906;28;45382;-57
2022/11/28 07:54:40;;;;;;;;;5.00;3.50;;;;;19.72;41.85;100641.91;5059787;28;45343;-57
2022/11/28 07:57:06;;;;;;;;;2.00;2.00;;;;;19.72;41.74;100650.63;5061320;28;45588;-57
2022/11/28 07:59:31;;;;;;;;;4.00;3.75;;;;;19.71;42.03;100654.19;5064944;28;51034;-57
2022/11/28 08:01:56;;;;;;;;;4.00;3.00;;;;;19.71;41.51;100659.44;5061496;28;45434;-57
2022/11/28 08:04:22;;;;;;;;;4.75;3.50;;;;;19.70;42.01;100655.13;5058231;28;45368;-57
2022/11/28 08:06:47;;;;;;;;;4.00;3.00;;;;;19.69;41.89;100648.16;5059551;28;45357;-57
2022/11/28 08:09:13;;;;;;;;;4.00;2.50;;;;;19.71;41.61;100658.63;5060369;28;46443;-57
2022/11/28 08:11:39;;;;;;;;;3.00;3.00;;;;;19.67;41.45;100663.19;5059626;28;45480;-57
2022/11/28 08:14:05;;;;;;;;;2.75;2.00;;;;;19.67;42.03;100655.31;5061672;28;45294;-57
2022/11/28 08:16:30;;;;;;;;;3.00;3.00;;;;;19.69;42.11;100663.94;5063639;28;45601;-57
2022/11/28 08:18:59;;;;;;;;;3.75;3.75;;;;;19.68;41.80;100670.13;5065623;28;46165;-57
2022/11/28 08:21:27;;;;;;;;;4.00;3.00;;;;;19.70;41.52;100667.44;5058545;28;45451;-57
2022/11/28 08:23:54;;;;;;;;;3.00;3.00;;;;;19.69;41.79;100677.09;5058375;28;45442;-57
2022/11/28 08:26:23;;;;;;;;;3.50;3.50;;;;;19.69;41.36;100674.44;5057253;28;45525;-57
2022/11/28 08:28:50;;;;;;;;;4.00;4.00;;;;;19.68;42.04;100675.38;5057268;28;46598;-57
2022/11/28 08:31:16;;;;;;;;;4.00;2.50;;;;;19.70;42.06;100675.31;5057727;28;45899;-57
2022/11/28 08:33:42;;;;;;;;;3.00;3.00;;;;;19.69;41.75;100681.50;5060821;28;45278;-57
2022/11/28 08:36:09;;;;;;;;;2.75;2.75;;;;;19.70;41.58;100678.78;5065775;28;45884;-57
2022/11/28 08:38:36;;;;;;;;;3.00;3.00;;;;;19.69;41.53;100673.63;5064170;28;47421;-57
2022/11/28 08:41:07;;;;;;;;;3.00;2.25;;;;;19.69;41.93;100671.81;5061970;28;45269;-57
2022/11/28 08:43:33;;;;;;;;;4.00;3.00;;;;;19.68;42.00;100670.13;5059422;28;45475;-57
2022/11/28 08:45:59;;;;;;;;;3.75;3.75;;;;;19.65;41.84;100667.69;5060225;28;45411;-59
2022/11/28 08:48:25;;;;;;;;;3.00;3.00;;;;;19.67;42.15;100663.19;5057898;28;45621;-57
2022/11/28 08:50:51;;;;;;;;;3.25;2.50;;;;;19.69;41.99;100666.56;5063851;28;45193;-57
2022/11/28 08:53:16;;;;;;;;;3.50;2.25;;;;;19.68;41.68;100662.25;5066904;28;45171;-57
2022/11/28 08:55:43;;;;;;;;;3.00;3.00;;;;;19.68;41.87;100670.13;5058739;28;45577;-57
2022/11/28 08:58:10;;;;;;;;;4.00;4.00;;;;;19.69;41.53;100671.81;5061528;28;46815;-57
2022/11/28 09:00:35;;;;;;;;;2.50;2.50;;;;;19.68;41.92;100674.56;5058111;28;45346;-57
2022/11/28 09:03:01;;;;;;;;;5.75;3.75;;;;;19.68;41.76;100667.50;5039406;28;45344;-57
2022/11/28 09:05:28;;;;;;;;;5.00;4.00;;;;;19.68;41.61;100662.25;5057905;28;45327;-57
2022/11/28 09:07:54;;;;;;;;;4.00;3.00;;;;;19.67;41.77;100657.94;5057318;28;45512;-57
2022/11/28 09:10:20;;;;;;;;;3.00;3.00;;;;;19.68;41.67;100662.25;5062817;28;45370;-57
2022/11/28 09:12:45;;;;;;;;;2.50;2.00;;;;;19.68;41.60;100667.50;5071247;28;45221;-57
2022/11/28 09:15:11;;;;;;;;;4.75;3.00;;;;;19.65;41.38;100662.44;5066026;28;45233;-57
2022/11/28 09:17:37;;;;;;;;;3.00;3.00;;;;;19.68;41.48;100667.50;5057018;28;46372;-57
2022/11/28 09:20:03;;;;;;;;;7.00;2.75;;;;;19.67;41.79;100665.81;5057221;28;45442;-57
2022/11/28 09:22:28;;;;;;;;;3.00;3.00;;;;;19.67;41.98;100673.72;5057346;28;45244;-57
2022/11/28 09:24:54;;;;;;;;;3.75;3.75;;;;;19.66;42.18;100666.75;5057418;28;45514;-57
2022/11/28 09:27:19;;;;;;;;;2.75;2.75;;;;;19.66;41.82;100677.28;5056470;28;46250;-57
2022/11/28 09:29:45;;;;;;;;;2.50;1.50;;;;;19.62;41.74;100673.09;5056625;28;45391;-57
2022/11/28 09:32:10;;;;;;;;;3.50;2.00;;;;;19.65;42.21;100677.34;5062216;28;45272;-57
2022/11/28 09:34:36;;;;;;;;;4.50;3.50;;;;;19.64;41.59;100679.13;5060977;28;45302;-57
2022/11/28 09:37:01;;;;;;;;;3.75;3.00;;;;;19.63;41.95;100680.88;5057856;28;45420;-57
2022/11/28 09:39:26;;;;;;;;;3.00;3.00;;;;;19.64;41.46;100687.00;5062019;28;45429;-57
2022/11/28 09:42:05;;;;;;;;;5.00;3.25;;;;;19.65;42.09;100683.47;5070346;28;45254;-57
2022/11/28 09:44:43;;;;;;;;;4.50;3.00;;;;;19.65;42.31;100686.09;5073831;28;45218;-57
2022/11/28 09:47:30;;;;;;;;;2.75;2.75;;;;;19.63;41.83;100687.94;5063156;28;48121;-57
2022/11/28 09:49:59;;;;;;;;;4.00;3.00;;;;;19.65;41.72;100695.75;5077721;28;45147;-57
2022/11/28 09:52:24;;;;;;;;;5.00;3.00;;;;;19.64;41.82;100694.91;5077778;28;44802;-57
2022/11/28 09:55:09;;;;;;;;;3.25;2.25;;;;;19.65;42.10;100690.47;5070313;28;45201;-57
2022/11/28 09:57:40;;;;;;;;;2.75;2.50;;;;;19.62;42.43;100686.25;5062464;28;45442;-57
2022/11/28 10:00:21;;;;;;;;;3.00;3.00;;;;;19.63;41.98;100687.94;5070578;28;45315;-57
2022/11/28 10:03:05;;;;;;;;;5.00;3.00;;;;;19.63;42.24;100677.44;5064515;28;45233;-57
2022/11/28 10:05:59;;;;;;;;;3.25;3.00;;;;;19.65;41.72;100685.22;5061143;28;45418;-57
2022/11/28 10:08:47;;;;;;;;;3.75;2.00;;;;;19.63;42.14;100685.31;5045365;28;45337;-57
2022/11/28 10:11:54;;;;;;;;;2.50;1.50;;;;;19.63;42.25;100677.44;5061049;28;45279;-57
2022/11/28 10:14:31;;;;;;;;;4.00;3.00;;;;;19.63;42.05;100682.69;5020411;28;45521;-57
2022/11/28 10:17:20;;;;;;;;;2.25;2.00;;;;;19.62;42.20;100683.63;5059980;28;45396;-57
2022/11/28 10:20:07;;;;;;;;;1.00;1.00;;;;;19.63;42.37;100682.69;5059663;28;45492;-56
2022/11/28 10:22:43;;;;;;;;;2.75;2.75;;;;;19.61;41.67;100689.81;5063063;28;45335;-56
2022/11/28 10:25:27;;;;;;;;;3.75;3.75;;;;;19.62;42.33;100700.22;5067186;28;45962;-57
2022/11/28 10:27:54;;;;;;;;;2.75;2.75;;;;;19.63;41.98;100696.66;5061820;28;45446;-56
2022/11/28 10:30:26;;;;;;;;;3.25;3.25;;;;;19.63;42.06;100693.19;5059590;28;45357;-57
2022/11/28 10:33:07;;;;;;;;;1.00;1.00;;;;;19.62;41.77;100699.38;5063422;28;45698;-57
2022/11/28 10:35:55;;;;;;;;;2.00;2.00;;;;;19.60;42.01;100696.00;5065279;28;45411;-59
2022/11/28 10:38:25;;;;;;;;;3.75;2.25;;;;;19.61;41.81;100695.94;5073572;28;44742;-55
2022/11/28 10:41:00;;;;;;;;;4.25;2.75;;;;;19.61;42.13;100688.03;5060150;28;45594;-55
2022/11/28 10:43:33;;;;;;;;;3.00;2.00;;;;;19.62;42.39;100681.00;5059651;28;45385;-56
2022/11/28 10:46:33;;;;;;;;;3.50;2.50;;;;;19.62;41.99;100686.25;5042990;28;45459;-56
2022/11/28 10:49:19;;;;;;;;;2.00;2.00;;;;;19.62;42.22;100681.00;5059597;28;45394;-56
2022/11/28 10:52:16;;;;;;;;;1.00;0.00;;;;;19.61;42.05;100679.28;5059137;28;45495;-56
2022/11/28 10:55:03;;;;;;;;;2.25;2.00;;;;;19.61;42.08;100677.53;5059670;28;45236;-57
2022/11/28 10:57:44;;;;;;;;;3.50;1.75;;;;;19.61;42.17;100684.53;5060060;28;45442;-57
2022/11/28 11:00:17;;;;;;;;;2.00;2.00;;;;;19.62;42.45;100681.00;5067699;28;45270;-57
2022/11/28 11:02:50;;;;;;;;;3.00;2.00;;;;;19.61;41.87;100680.16;5053805;28;45693;-56
2022/11/28 11:05:23;;;;;;;;;2.25;2.25;;;;;19.62;42.22;100678.34;5061032;28;45860;-56
2022/11/28 11:07:52;;;;;;;;;3.00;2.00;;;;;19.62;41.78;100675.72;5065280;28;44783;-57
2022/11/28 11:10:24;;;;;;;;;4.00;2.50;;;;;19.62;41.93;100678.34;5081690;28;44809;-57
2022/11/28 11:12:53;;;;;;;;;4.25;2.50;;;;;19.62;41.95;100673.09;5081908;28;45156;-57
2022/11/28 11:15:31;;;;;;;;;2.00;2.00;;;;;19.62;42.13;100681.00;5070738;28;45815;-57
2022/11/28 11:18:01;;;;;;;;;4.25;2.00;;;;;19.61;42.01;100690.66;5063630;28;45410;-57
2022/11/28 11:20:38;;;;;;;;;2.50;2.00;;;;;19.62;42.27;100697.59;5059831;28;45387;-57
2022/11/28 11:23:16;;;;;;;;;2.00;2.00;;;;;19.63;42.12;100701.09;5059551;28;46125;-57
2022/11/28 11:25:47;;;;;;;;;2.00;2.00;;;;;19.61;42.13;100701.19;5059332;28;45749;-57
2022/11/28 11:28:38;;;;;;;;;3.75;2.50;;;;;19.61;42.32;100701.19;5063567;28;45474;-57
2022/11/28 11:31:13;;;;;;;;;2.00;2.00;;;;;19.61;41.80;100684.53;5061673;28;45235;-56
2022/11/28 11:33:39;;;;;;;;;2.75;2.75;;;;;19.61;42.20;100676.66;5058977;28;45698;-57
2022/11/28 11:36:38;;;;;;;;;3.00;2.00;;;;;19.62;41.79;100675.72;5063204;28;45336;-57
2022/11/28 11:39:20;;;;;;;;;2.25;2.00;;;;;19.60;42.13;100669.69;5063650;28;45599;-56
2022/11/28 11:42:09;;;;;;;;;3.00;2.00;;;;;19.60;42.33;100670.56;5063537;28;45324;-57
2022/11/28 11:44:34;;;;;;;;;4.75;2.00;;;;;19.60;41.80;100664.44;5071632;28;45359;-57